sensor_id;sensor_type;location;lat;lon;timestamp;pressure;altitude;pressure_sealevel;temperature;humidity
72330;BME280;60660;52.076;5.110;2023-02-18T00:01:19;102251.20;;;10.65;40.31
72330;BME280;60660;52.076;5.110;2023-02-18T00:03:43;102247.30;;;11.29;39.13
72330;BME280;60660;52.076;5.110;2023-02-18T00:06:11;102245.05;;;10.90;40.03
72330;BME280;60660;52.076;5.110;2023-02-18T00:08:35;102245.99;;;9.80;41.77
72330;BME280;60660;52.076;5.110;2023-02-18T00:10:59;102249.29;;;9.66;42.00
72330;BME280;60660;52.076;5.110;2023-02-18T00:13:25;102244.33;;;10.30;41.73
72330;BME280;60660;52.076;5.110;2023-02-18T00:15:50;102245.53;;;9.76;42.03
72330;BME280;60660;52.076;5.110;2023-02-18T00:18:16;102238.64;;;10.90;40.80
72330;BME280;60660;52.076;5.110;2023-02-18T00:20:42;102235.88;;;11.14;40.22
72330;BME280;60660;52.076;5.110;2023-02-18T00:23:07;102237.19;;;10.71;40.52
72330;BME280;60660;52.076;5.110;2023-02-18T00:25:33;102233.29;;;11.70;39.41
72330;BME280;60660;52.076;5.110;2023-02-18T00:27:58;102233.19;;;11.43;39.63
72330;BME280;60660;52.076;5.110;2023-02-18T00:30:24;102234.67;;;10.30;40.86
72330;BME280;60660;52.076;5.110;2023-02-18T00:32:55;102227.54;;;12.24;38.86
72330;BME280;60660;52.076;5.110;2023-02-18T00:35:15;102227.15;;;10.18;41.77
72330;BME280;60660;52.076;5.110;2023-02-18T00:37:40;102235.62;;;10.86;40.62
72330;BME280;60660;52.076;5.110;2023-02-18T00:40:07;102227.17;;;10.13;40.73
72330;BME280;60660;52.076;5.110;2023-02-18T00:42:36;102228.49;;;10.13;42.25
72330;BME280;60660;52.076;5.110;2023-02-18T00:44:57;102221.71;;;10.33;41.49
72330;BME280;60660;52.076;5.110;2023-02-18T00:47:22;102216.36;;;10.22;41.81
72330;BME280;60660;52.076;5.110;2023-02-18T00:49:48;102218.20;;;10.46;41.25
72330;BME280;60660;52.076;5.110;2023-02-18T00:52:12;102216.70;;;10.69;41.06
72330;BME280;60660;52.076;5.110;2023-02-18T00:54:38;102214.25;;;10.62;41.33
72330;BME280;60660;52.076;5.110;2023-02-18T00:57:03;102210.17;;;9.87;41.89
72330;BME280;60660;52.076;5.110;2023-02-18T00:59:34;102209.43;;;10.27;41.22
72330;BME280;60660;52.076;5.110;2023-02-18T01:01:54;102211.63;;;11.25;39.91
72330;BME280;60660;52.076;5.110;2023-02-18T01:04:20;102208.73;;;10.64;40.72
72330;BME280;60660;52.076;5.110;2023-02-18T01:06:45;102206.93;;;9.08;43.85
72330;BME280;60660;52.076;5.110;2023-02-18T01:09:10;102211.16;;;9.81;42.46
72330;BME280;60660;52.076;5.110;2023-02-18T01:11:36;102209.14;;;9.49;42.64
72330;BME280;60660;52.076;5.110;2023-02-18T01:14:02;102214.78;;;11.09;40.78
72330;BME280;60660;52.076;5.110;2023-02-18T01:16:26;102218.02;;;10.65;40.67
72330;BME280;60660;52.076;5.110;2023-02-18T01:18:52;102215.53;;;8.87;43.95
72330;BME280;60660;52.076;5.110;2023-02-18T01:21:17;102215.71;;;10.32;42.21
72330;BME280;60660;52.076;5.110;2023-02-18T01:23:42;102215.51;;;11.02;41.23
72330;BME280;60660;52.076;5.110;2023-02-18T01:26:08;102214.64;;;11.01;40.48
72330;BME280;60660;52.076;5.110;2023-02-18T01:28:33;102200.14;;;11.33;39.83
72330;BME280;60660;52.076;5.110;2023-02-18T01:31:03;102184.58;;;11.87;38.67
72330;BME280;60660;52.076;5.110;2023-02-18T01:33:25;102188.13;;;11.54;39.27
72330;BME280;60660;52.076;5.110;2023-02-18T01:35:51;102185.01;;;10.26;40.92
72330;BME280;60660;52.076;5.110;2023-02-18T01:38:15;102183.52;;;10.59;40.12
72330;BME280;60660;52.076;5.110;2023-02-18T01:40:47;102172.76;;;10.69;40.56
72330;BME280;60660;52.076;5.110;2023-02-18T01:43:09;102175.97;;;10.30;41.37
72330;BME280;60660;52.076;5.110;2023-02-18T01:45:56;102175.28;;;10.54;40.97
72330;BME280;60660;52.076;5.110;2023-02-18T01:47:57;102177.36;;;10.42;41.34
72330;BME280;60660;52.076;5.110;2023-02-18T01:50:23;102182.38;;;10.89;40.46
72330;BME280;60660;52.076;5.110;2023-02-18T01:52:48;102176.41;;;10.24;41.25
72330;BME280;60660;52.076;5.110;2023-02-18T01:55:13;102173.65;;;11.33;40.25
72330;BME280;60660;52.076;5.110;2023-02-18T01:57:39;102172.42;;;10.96;40.50
72330;BME280;60660;52.076;5.110;2023-02-18T02:00:09;102164.64;;;10.98;40.51
72330;BME280;60660;52.076;5.110;2023-02-18T02:02:32;102163.55;;;10.88;40.37
72330;BME280;60660;52.076;5.110;2023-02-18T02:04:56;102164.19;;;11.03;40.33
72330;BME280;60660;52.076;5.110;2023-02-18T02:07:23;102163.25;;;10.34;41.53
72330;BME280;60660;52.076;5.110;2023-02-18T02:09:48;102154.40;;;10.71;41.31
72330;BME280;60660;52.076;5.110;2023-02-18T02:12:24;102151.10;;;10.68;41.29
72330;BME280;60660;52.076;5.110;2023-02-18T02:14:50;102144.47;;;11.73;40.25
72330;BME280;60660;52.076;5.110;2023-02-18T02:17:04;102136.57;;;10.86;41.10
72330;BME280;60660;52.076;5.110;2023-02-18T02:19:55;102127.13;;;10.99;40.52
72330;BME280;60660;52.076;5.110;2023-02-18T02:22:10;102121.12;;;10.70;41.28
72330;BME280;60660;52.076;5.110;2023-02-18T02:24:50;102106.80;;;11.07;40.94
72330;BME280;60660;52.076;5.110;2023-02-18T02:29:26;102096.22;;;10.58;41.42
72330;BME280;60660;52.076;5.110;2023-02-18T02:31:37;102089.52;;;10.68;41.32
72330;BME280;60660;52.076;5.110;2023-02-18T02:34:12;102082.19;;;11.49;40.72
72330;BME280;60660;52.076;5.110;2023-02-18T02:36:15;102071.58;;;11.74;40.35
72330;BME280;60660;52.076;5.110;2023-02-18T02:38:49;102066.27;;;10.45;41.98
72330;BME280;60660;52.076;5.110;2023-02-18T02:41:15;102064.55;;;11.33;41.20
72330;BME280;60660;52.076;5.110;2023-02-18T02:43:38;102051.74;;;10.51;42.56
72330;BME280;60660;52.076;5.110;2023-02-18T02:46:02;102049.16;;;10.27;42.77
72330;BME280;60660;52.076;5.110;2023-02-18T02:48:34;102042.83;;;10.29;43.41
72330;BME280;60660;52.076;5.110;2023-02-18T02:50:56;102042.57;;;9.63;43.98
72330;BME280;60660;52.076;5.110;2023-02-18T02:53:15;102036.62;;;9.76;43.76
72330;BME280;60660;52.076;5.110;2023-02-18T02:55:38;102028.01;;;10.24;43.33
72330;BME280;60660;52.076;5.110;2023-02-18T02:58:04;102023.36;;;9.76;44.00
72330;BME280;60660;52.076;5.110;2023-02-18T03:00:37;102008.75;;;10.43;43.48
72330;BME280;60660;52.076;5.110;2023-02-18T03:03:07;102008.15;;;10.94;42.47
72330;BME280;60660;52.076;5.110;2023-02-18T03:05:28;102009.77;;;11.11;42.26
72330;BME280;60660;52.076;5.110;2023-02-18T03:08:00;102008.37;;;10.39;43.12
72330;BME280;60660;52.076;5.110;2023-02-18T03:10:25;102015.60;;;10.15;44.01
72330;BME280;60660;52.076;5.110;2023-02-18T03:12:44;102014.34;;;10.81;42.87
72330;BME280;60660;52.076;5.110;2023-02-18T03:15:08;102013.31;;;10.11;43.16
72330;BME280;60660;52.076;5.110;2023-02-18T03:17:30;102016.00;;;9.50;44.11
72330;BME280;60660;52.076;5.110;2023-02-18T03:19:57;102004.61;;;10.78;42.81
72330;BME280;60660;52.076;5.110;2023-02-18T03:22:21;102003.33;;;11.32;41.92
72330;BME280;60660;52.076;5.110;2023-02-18T03:24:47;101993.28;;;10.88;41.80
72330;BME280;60660;52.076;5.110;2023-02-18T03:27:13;101990.42;;;10.54;42.78
72330;BME280;60660;52.076;5.110;2023-02-18T03:29:35;101984.34;;;10.54;42.42
72330;BME280;60660;52.076;5.110;2023-02-18T03:32:04;101979.84;;;9.93;42.93
72330;BME280;60660;52.076;5.110;2023-02-18T03:34:29;101977.04;;;10.23;43.19
72330;BME280;60660;52.076;5.110;2023-02-18T03:36:53;101966.28;;;10.58;42.71
72330;BME280;60660;52.076;5.110;2023-02-18T03:39:19;101959.32;;;9.82;43.93
72330;BME280;60660;52.076;5.110;2023-02-18T03:41:44;101953.32;;;9.93;44.26
72330;BME280;60660;52.076;5.110;2023-02-18T03:44:09;101949.39;;;9.74;43.74
72330;BME280;60660;52.076;5.110;2023-02-18T03:46:41;101944.26;;;10.04;43.73
72330;BME280;60660;52.076;5.110;2023-02-18T03:49:01;101942.80;;;10.00;44.29
72330;BME280;60660;52.076;5.110;2023-02-18T03:51:25;101940.13;;;10.34;44.42
72330;BME280;60660;52.076;5.110;2023-02-18T03:53:51;101928.58;;;10.02;44.96
72330;BME280;60660;52.076;5.110;2023-02-18T03:56:16;101928.17;;;10.58;44.19
72330;BME280;60660;52.076;5.110;2023-02-18T03:58:41;101926.09;;;9.18;47.21
72330;BME280;60660;52.076;5.110;2023-02-18T04:01:07;101923.20;;;10.30;45.61
72330;BME280;60660;52.076;5.110;2023-02-18T04:03:32;101917.54;;;9.47;46.14
72330;BME280;60660;52.076;5.110;2023-02-18T04:05:58;101919.74;;;8.96;47.27
72330;BME280;60660;52.076;5.110;2023-02-18T04:08:24;101913.32;;;10.05;46.66
72330;BME280;60660;52.076;5.110;2023-02-18T04:10:49;101928.88;;;10.07;46.35
72330;BME280;60660;52.076;5.110;2023-02-18T04:13:13;101924.92;;;8.96;48.45
72330;BME280;60660;52.076;5.110;2023-02-18T04:15:39;101922.24;;;9.00;48.60
72330;BME280;60660;52.076;5.110;2023-02-18T04:18:04;101917.95;;;9.16;48.50
72330;BME280;60660;52.076;5.110;2023-02-18T04:20:30;101923.16;;;8.41;49.47
72330;BME280;60660;52.076;5.110;2023-02-18T04:22:55;101909.54;;;7.11;53.58
72330;BME280;60660;52.076;5.110;2023-02-18T04:25:20;101913.04;;;9.15;49.87
72330;BME280;60660;52.076;5.110;2023-02-18T04:27:52;101908.19;;;9.33;48.55
72330;BME280;60660;52.076;5.110;2023-02-18T04:30:12;101909.69;;;7.62;51.53
72330;BME280;60660;52.076;5.110;2023-02-18T04:32:37;101908.28;;;9.27;48.69
72330;BME280;60660;52.076;5.110;2023-02-18T04:35:02;101908.54;;;7.91;50.31
72330;BME280;60660;52.076;5.110;2023-02-18T04:37:27;101902.63;;;8.12;51.71
72330;BME280;60660;52.076;5.110;2023-02-18T04:39:57;101898.45;;;8.29;51.28
72330;BME280;60660;52.076;5.110;2023-02-18T04:42:19;101896.90;;;9.20;49.12
72330;BME280;60660;52.076;5.110;2023-02-18T04:44:43;101894.70;;;10.26;46.74
72330;BME280;60660;52.076;5.110;2023-02-18T04:47:08;101892.65;;;9.16;48.56
72330;BME280;60660;52.076;5.110;2023-02-18T04:49:34;101879.96;;;10.14;46.52
72330;BME280;60660;52.076;5.110;2023-02-18T04:51:59;101873.63;;;10.53;45.72
72330;BME280;60660;52.076;5.110;2023-02-18T04:54:24;101862.89;;;10.19;45.40
72330;BME280;60660;52.076;5.110;2023-02-18T04:56:50;101858.37;;;9.25;47.43
72330;BME280;60660;52.076;5.110;2023-02-18T04:59:15;101858.80;;;8.29;50.14
72330;BME280;60660;52.076;5.110;2023-02-18T05:01:41;101859.31;;;8.36;50.60
72330;BME280;60660;52.076;5.110;2023-02-18T05:04:06;101862.62;;;8.34;50.22
72330;BME280;60660;52.076;5.110;2023-02-18T05:06:32;101860.93;;;9.49;49.18
72330;BME280;60660;52.076;5.110;2023-02-18T05:08:58;101867.41;;;7.02;53.96
72330;BME280;60660;52.076;5.110;2023-02-18T05:11:23;101867.64;;;7.14;53.52
72330;BME280;60660;52.076;5.110;2023-02-18T05:13:49;101873.51;;;7.94;53.81
72330;BME280;60660;52.076;5.110;2023-02-18T05:16:14;101874.09;;;8.58;51.13
72330;BME280;60660;52.076;5.110;2023-02-18T05:18:41;101874.45;;;7.71;53.54
72330;BME280;60660;52.076;5.110;2023-02-18T05:21:07;101859.75;;;6.95;57.25
72330;BME280;60660;52.076;5.110;2023-02-18T05:23:32;101867.16;;;7.82;54.73
72330;BME280;60660;52.076;5.110;2023-02-18T05:25:57;101859.48;;;8.75;52.26
72330;BME280;60660;52.076;5.110;2023-02-18T05:28:22;101856.15;;;8.35;53.18
72330;BME280;60660;52.076;5.110;2023-02-18T05:30:52;101856.98;;;7.57;54.45
72330;BME280;60660;52.076;5.110;2023-02-18T05:33:13;101851.09;;;8.09;53.21
72330;BME280;60660;52.076;5.110;2023-02-18T05:35:38;101855.79;;;9.10;51.90
72330;BME280;60660;52.076;5.110;2023-02-18T05:38:04;101853.56;;;8.64;52.15
72330;BME280;60660;52.076;5.110;2023-02-18T05:40:29;101846.94;;;6.61;56.45
72330;BME280;60660;52.076;5.110;2023-02-18T05:42:55;101840.68;;;9.10;52.49
72330;BME280;60660;52.076;5.110;2023-02-18T05:45:20;101833.88;;;7.82;52.55
72330;BME280;60660;52.076;5.110;2023-02-18T05:47:46;101836.75;;;9.07;50.91
72330;BME280;60660;52.076;5.110;2023-02-18T05:50:11;101834.60;;;6.79;55.49
72330;BME280;60660;52.076;5.110;2023-02-18T05:52:36;101831.75;;;8.34;53.33
72330;BME280;60660;52.076;5.110;2023-02-18T05:55:01;101830.76;;;8.98;50.69
72330;BME280;60660;52.076;5.110;2023-02-18T05:57:27;101824.73;;;7.80;52.16
72330;BME280;60660;52.076;5.110;2023-02-18T05:59:51;101816.87;;;8.97;51.31
72330;BME280;60660;52.076;5.110;2023-02-18T06:02:17;101817.63;;;7.84;52.50
72330;BME280;60660;52.076;5.110;2023-02-18T06:04:59;101815.91;;;9.39;49.42
72330;BME280;60660;52.076;5.110;2023-02-18T06:07:08;101821.11;;;7.78;53.39
72330;BME280;60660;52.076;5.110;2023-02-18T06:09:33;101823.77;;;8.01;53.50
72330;BME280;60660;52.076;5.110;2023-02-18T06:11:59;101822.45;;;10.74;48.33
72330;BME280;60660;52.076;5.110;2023-02-18T06:14:25;101819.22;;;9.56;49.14
72330;BME280;60660;52.076;5.110;2023-02-18T06:16:50;101816.78;;;9.17;49.27
72330;BME280;60660;52.076;5.110;2023-02-18T06:19:15;101829.09;;;8.16;51.74
72330;BME280;60660;52.076;5.110;2023-02-18T06:21:40;101822.19;;;8.83;52.05
72330;BME280;60660;52.076;5.110;2023-02-18T06:24:08;101822.69;;;9.01;51.88
72330;BME280;60660;52.076;5.110;2023-02-18T06:26:32;101820.85;;;6.35;56.36
72330;BME280;60660;52.076;5.110;2023-02-18T06:28:57;101831.39;;;7.93;54.78
72330;BME280;60660;52.076;5.110;2023-02-18T06:31:22;101825.08;;;8.24;53.21
72330;BME280;60660;52.076;5.110;2023-02-18T06:33:48;101827.10;;;8.31;54.01
72330;BME280;60660;52.076;5.110;2023-02-18T06:36:14;101825.81;;;6.47;59.93
72330;BME280;60660;52.076;5.110;2023-02-18T06:38:40;101827.37;;;8.44;55.57
72330;BME280;60660;52.076;5.110;2023-02-18T06:41:05;101814.44;;;6.67;56.99
72330;BME280;60660;52.076;5.110;2023-02-18T06:43:31;101820.60;;;7.99;54.60
72330;BME280;60660;52.076;5.110;2023-02-18T06:46:01;101821.16;;;8.63;54.29
72330;BME280;60660;52.076;5.110;2023-02-18T06:48:22;101822.91;;;7.01;55.80
72330;BME280;60660;52.076;5.110;2023-02-18T06:50:49;101819.52;;;6.32;57.62
72330;BME280;60660;52.076;5.110;2023-02-18T06:53:12;101824.72;;;7.88;53.59
72330;BME280;60660;52.076;5.110;2023-02-18T06:55:39;101831.12;;;8.56;51.06
72330;BME280;60660;52.076;5.110;2023-02-18T06:58:03;101836.40;;;8.28;51.18
72330;BME280;60660;52.076;5.110;2023-02-18T07:00:29;101828.20;;;8.76;49.89
72330;BME280;60660;52.076;5.110;2023-02-18T07:02:59;101822.90;;;8.35;51.72
72330;BME280;60660;52.076;5.110;2023-02-18T07:05:19;101823.56;;;7.48;52.68
72330;BME280;60660;52.076;5.110;2023-02-18T07:07:48;101823.78;;;8.71;51.53
72330;BME280;60660;52.076;5.110;2023-02-18T07:10:11;101833.23;;;8.07;50.56
72330;BME280;60660;52.076;5.110;2023-02-18T07:12:36;101822.83;;;7.78;52.55
72330;BME280;60660;52.076;5.110;2023-02-18T07:15:03;101834.18;;;7.82;52.59
72330;BME280;60660;52.076;5.110;2023-02-18T07:17:28;101831.98;;;6.95;55.91
72330;BME280;60660;52.076;5.110;2023-02-18T07:19:53;101831.94;;;7.19;57.62
72330;BME280;60660;52.076;5.110;2023-02-18T07:22:18;101823.29;;;7.17;58.11
72330;BME280;60660;52.076;5.110;2023-02-18T07:24:44;101824.36;;;7.20;55.92
72330;BME280;60660;52.076;5.110;2023-02-18T07:27:10;101823.13;;;7.37;55.68
72330;BME280;60660;52.076;5.110;2023-02-18T07:29:34;101832.37;;;7.40;54.54
72330;BME280;60660;52.076;5.110;2023-02-18T07:31:59;101825.41;;;5.94;57.24
72330;BME280;60660;52.076;5.110;2023-02-18T07:34:24;101816.83;;;8.67;52.38
72330;BME280;60660;52.076;5.110;2023-02-18T07:36:49;101829.33;;;8.07;52.20
72330;BME280;60660;52.076;5.110;2023-02-18T07:39:15;101820.05;;;8.03;52.15
72330;BME280;60660;52.076;5.110;2023-02-18T07:41:40;101810.74;;;8.34;51.18
72330;BME280;60660;52.076;5.110;2023-02-18T07:44:05;101813.59;;;9.05;49.07
72330;BME280;60660;52.076;5.110;2023-02-18T07:46:30;101813.59;;;9.66;47.31
72330;BME280;60660;52.076;5.110;2023-02-18T07:48:56;101824.22;;;7.29;50.35
72330;BME280;60660;52.076;5.110;2023-02-18T07:51:21;101826.65;;;7.55;51.26
72330;BME280;60660;52.076;5.110;2023-02-18T07:53:47;101822.37;;;7.00;52.41
72330;BME280;60660;52.076;5.110;2023-02-18T07:56:11;101822.57;;;6.76;52.05
72330;BME280;60660;52.076;5.110;2023-02-18T07:58:38;101820.79;;;7.42;52.24
72330;BME280;60660;52.076;5.110;2023-02-18T08:01:04;101823.39;;;6.66;52.92
72330;BME280;60660;52.076;5.110;2023-02-18T08:03:30;101829.97;;;9.16;48.56
72330;BME280;60660;52.076;5.110;2023-02-18T08:05:56;101840.52;;;8.15;48.35
72330;BME280;60660;52.076;5.110;2023-02-18T08:08:23;101848.45;;;8.72;48.48
72330;BME280;60660;52.076;5.110;2023-02-18T08:10:48;101832.41;;;6.77;51.03
72330;BME280;60660;52.076;5.110;2023-02-18T08:13:12;101847.40;;;7.52;49.15
72330;BME280;60660;52.076;5.110;2023-02-18T08:15:38;101841.56;;;7.87;49.93
72330;BME280;60660;52.076;5.110;2023-02-18T08:18:08;101830.05;;;7.10;50.96
72330;BME280;60660;52.076;5.110;2023-02-18T08:20:28;101834.84;;;6.26;52.76
72330;BME280;60660;52.076;5.110;2023-02-18T08:22:53;101835.07;;;6.37;51.83
72330;BME280;60660;52.076;5.110;2023-02-18T08:25:19;101834.44;;;8.27;48.94
72330;BME280;60660;52.076;5.110;2023-02-18T08:27:44;101841.19;;;7.88;49.64
72330;BME280;60660;52.076;5.110;2023-02-18T08:30:10;101844.77;;;8.34;47.48
72330;BME280;60660;52.076;5.110;2023-02-18T08:32:35;101846.36;;;6.59;49.86
72330;BME280;60660;52.076;5.110;2023-02-18T08:35:00;101851.04;;;7.46;49.13
72330;BME280;60660;52.076;5.110;2023-02-18T08:37:25;101845.08;;;8.57;46.53
72330;BME280;60660;52.076;5.110;2023-02-18T08:39:51;101846.34;;;8.21;47.25
72330;BME280;60660;52.076;5.110;2023-02-18T08:42:18;101841.85;;;7.14;48.86
72330;BME280;60660;52.076;5.110;2023-02-18T08:44:42;101834.62;;;8.27;47.18
72330;BME280;60660;52.076;5.110;2023-02-18T08:47:07;101840.24;;;6.54;49.28
72330;BME280;60660;52.076;5.110;2023-02-18T08:49:33;101836.85;;;6.96;50.67
72330;BME280;60660;52.076;5.110;2023-02-18T08:51:58;101845.96;;;6.56;51.14
72330;BME280;60660;52.076;5.110;2023-02-18T08:54:24;101845.25;;;8.88;47.18
72330;BME280;60660;52.076;5.110;2023-02-18T08:56:53;101849.46;;;9.81;45.20
72330;BME280;60660;52.076;5.110;2023-02-18T08:59:14;101845.76;;;7.36;48.51
72330;BME280;60660;52.076;5.110;2023-02-18T09:01:39;101852.34;;;7.13;49.89
72330;BME280;60660;52.076;5.110;2023-02-18T09:04:05;101853.33;;;5.93;51.68
72330;BME280;60660;52.076;5.110;2023-02-18T09:06:36;101851.34;;;6.57;51.53
72330;BME280;60660;52.076;5.110;2023-02-18T09:08:56;101851.50;;;6.87;50.73
72330;BME280;60660;52.076;5.110;2023-02-18T09:11:21;101858.99;;;6.24;51.55
72330;BME280;60660;52.076;5.110;2023-02-18T09:13:47;101859.10;;;5.89;53.77
72330;BME280;60660;52.076;5.110;2023-02-18T09:16:14;101854.67;;;6.96;53.33
72330;BME280;60660;52.076;5.110;2023-02-18T09:18:36;101873.69;;;6.42;53.31
72330;BME280;60660;52.076;5.110;2023-02-18T09:21:03;101872.21;;;7.06;51.64
72330;BME280;60660;52.076;5.110;2023-02-18T09:23:28;101860.55;;;7.52;50.44
72330;BME280;60660;52.076;5.110;2023-02-18T09:25:52;101871.08;;;5.75;52.42
72330;BME280;60660;52.076;5.110;2023-02-18T09:28:18;101870.45;;;6.75;50.97
72330;BME280;60660;52.076;5.110;2023-02-18T09:30:43;101880.61;;;7.68;49.50
72330;BME280;60660;52.076;5.110;2023-02-18T09:33:09;101871.62;;;7.31;49.33
72330;BME280;60660;52.076;5.110;2023-02-18T09:35:38;101869.32;;;7.60;49.60
72330;BME280;60660;52.076;5.110;2023-02-18T09:37:59;101859.56;;;7.44;50.63
72330;BME280;60660;52.076;5.110;2023-02-18T09:40:29;101870.47;;;5.73;53.35
72330;BME280;60660;52.076;5.110;2023-02-18T09:42:54;101873.24;;;7.41;51.35
72330;BME280;60660;52.076;5.110;2023-02-18T09:45:17;101877.28;;;6.49;52.70
72330;BME280;60660;52.076;5.110;2023-02-18T09:47:43;101879.27;;;8.03;48.50
72330;BME280;60660;52.076;5.110;2023-02-18T09:50:16;101880.62;;;9.17;48.02
72330;BME280;60660;52.076;5.110;2023-02-18T09:52:35;101886.82;;;6.17;51.05
72330;BME280;60660;52.076;5.110;2023-02-18T09:54:59;101893.82;;;6.72;52.30
72330;BME280;60660;52.076;5.110;2023-02-18T09:57:27;101897.89;;;6.89;52.78
72330;BME280;60660;52.076;5.110;2023-02-18T09:59:56;101886.33;;;7.22;50.72
72330;BME280;60660;52.076;5.110;2023-02-18T10:02:15;101884.92;;;6.39;51.57
72330;BME280;60660;52.076;5.110;2023-02-18T10:04:47;101893.13;;;8.02;50.00
72330;BME280;60660;52.076;5.110;2023-02-18T10:07:07;101885.78;;;6.46;51.27
72330;BME280;60660;52.076;5.110;2023-02-18T10:09:33;101898.53;;;7.47;48.90
72330;BME280;60660;52.076;5.110;2023-02-18T10:12:06;101896.66;;;8.11;47.65
72330;BME280;60660;52.076;5.110;2023-02-18T10:14:21;101901.24;;;8.05;47.82
72330;BME280;60660;52.076;5.110;2023-02-18T10:16:49;101896.10;;;6.42;52.64
72330;BME280;60660;52.076;5.110;2023-02-18T10:19:20;101888.16;;;8.19;48.73
72330;BME280;60660;52.076;5.110;2023-02-18T10:21:38;101903.11;;;7.88;48.63
72330;BME280;60660;52.076;5.110;2023-02-18T10:24:09;101910.37;;;7.92;48.39
72330;BME280;60660;52.076;5.110;2023-02-18T10:26:30;101910.84;;;7.59;50.09
72330;BME280;60660;52.076;5.110;2023-02-18T10:28:53;101914.66;;;6.88;50.22
72330;BME280;60660;52.076;5.110;2023-02-18T10:31:22;101910.80;;;8.15;47.99
72330;BME280;60660;52.076;5.110;2023-02-18T10:33:50;101921.92;;;9.53;46.76
72330;BME280;60660;52.076;5.110;2023-02-18T10:36:24;101919.79;;;11.03;43.09
72330;BME280;60660;52.076;5.110;2023-02-18T10:38:40;101923.35;;;10.42;43.57
72330;BME280;60660;52.076;5.110;2023-02-18T10:41:07;101919.17;;;8.05;46.13
72330;BME280;60660;52.076;5.110;2023-02-18T10:43:35;101924.98;;;7.62;48.12
72330;BME280;60660;52.076;5.110;2023-02-18T10:45:57;101930.24;;;9.55;45.68
72330;BME280;60660;52.076;5.110;2023-02-18T10:48:36;101923.91;;;8.21;48.23
72330;BME280;60660;52.076;5.110;2023-02-18T10:50:44;101930.75;;;9.46;46.01
72330;BME280;60660;52.076;5.110;2023-02-18T10:53:11;101924.58;;;8.93;46.59
72330;BME280;60660;52.076;5.110;2023-02-18T10:55:36;101919.28;;;7.83;47.59
72330;BME280;60660;52.076;5.110;2023-02-18T10:57:59;101927.18;;;7.96;47.67
72330;BME280;60660;52.076;5.110;2023-02-18T11:00:26;101913.68;;;6.69;50.81
72330;BME280;60660;52.076;5.110;2023-02-18T11:03:03;101904.51;;;6.13;53.57
72330;BME280;60660;52.076;5.110;2023-02-18T11:05:21;101911.11;;;6.77;52.43
72330;BME280;60660;52.076;5.110;2023-02-18T11:07:40;101906.07;;;9.19;48.43
72330;BME280;60660;52.076;5.110;2023-02-18T11:10:15;101913.88;;;9.81;46.11
72330;BME280;60660;52.076;5.110;2023-02-18T11:12:42;101917.36;;;9.46;47.14
72330;BME280;60660;52.076;5.110;2023-02-18T11:15:15;101918.60;;;8.74;47.30
72330;BME280;60660;52.076;5.110;2023-02-18T11:17:26;101915.55;;;8.90;46.59
72330;BME280;60660;52.076;5.110;2023-02-18T11:19:55;101913.11;;;9.35;45.73
72330;BME280;60660;52.076;5.110;2023-02-18T11:22:15;101913.72;;;7.75;48.43
72330;BME280;60660;52.076;5.110;2023-02-18T11:24:38;101916.16;;;9.71;45.83
72330;BME280;60660;52.076;5.110;2023-02-18T11:27:08;101921.25;;;8.64;46.15
72330;BME280;60660;52.076;5.110;2023-02-18T11:29:30;101918.85;;;7.19;49.72
72330;BME280;60660;52.076;5.110;2023-02-18T11:31:55;101924.13;;;8.92;47.44
72330;BME280;60660;52.076;5.110;2023-02-18T11:34:22;101923.86;;;9.63;45.72
72330;BME280;60660;52.076;5.110;2023-02-18T11:36:47;101924.76;;;8.83;46.85
72330;BME280;60660;52.076;5.110;2023-02-18T11:39:19;101924.88;;;9.20;45.79
72330;BME280;60660;52.076;5.110;2023-02-18T11:41:38;101923.31;;;8.21;49.16
72330;BME280;60660;52.076;5.110;2023-02-18T11:44:05;101910.87;;;8.98;46.54
72330;BME280;60660;52.076;5.110;2023-02-18T11:46:27;101917.00;;;6.64;51.24
72330;BME280;60660;52.076;5.110;2023-02-18T11:49:09;101917.87;;;8.10;49.15
72330;BME280;60660;52.076;5.110;2023-02-18T11:51:19;101922.66;;;9.50;46.25
72330;BME280;60660;52.076;5.110;2023-02-18T11:53:58;101918.56;;;10.37;44.72
72330;BME280;60660;52.076;5.110;2023-02-18T11:56:17;101918.09;;;8.48;47.09
72330;BME280;60660;52.076;5.110;2023-02-18T11:58:38;101911.88;;;11.22;43.71
72330;BME280;60660;52.076;5.110;2023-02-18T12:01:02;101913.79;;;9.88;44.16
72330;BME280;60660;52.076;5.110;2023-02-18T12:03:30;101926.21;;;11.59;41.55
72330;BME280;60660;52.076;5.110;2023-02-18T12:05:51;101914.36;;;9.76;44.53
72330;BME280;60660;52.076;5.110;2023-02-18T12:08:19;101910.48;;;8.56;46.42
72330;BME280;60660;52.076;5.110;2023-02-18T12:10:45;101907.57;;;9.89;45.59
72330;BME280;60660;52.076;5.110;2023-02-18T12:13:19;101912.61;;;12.10;41.65
72330;BME280;60660;52.076;5.110;2023-02-18T12:15:39;101908.15;;;11.88;41.20
72330;BME280;60660;52.076;5.110;2023-02-18T12:18:16;101910.53;;;10.38;43.23
72330;BME280;60660;52.076;5.110;2023-02-18T12:20:34;101903.56;;;8.84;46.14
72330;BME280;60660;52.076;5.110;2023-02-18T12:22:55;101905.73;;;9.84;45.65
72330;BME280;60660;52.076;5.110;2023-02-18T12:25:26;101912.80;;;9.81;44.43
72330;BME280;60660;52.076;5.110;2023-02-18T12:27:43;101900.75;;;10.12;44.64
72330;BME280;60660;52.076;5.110;2023-02-18T12:30:27;101905.64;;;9.45;45.27
72330;BME280;60660;52.076;5.110;2023-02-18T12:32:36;101907.20;;;11.69;42.35
72330;BME280;60660;52.076;5.110;2023-02-18T12:35:02;101905.66;;;11.06;41.69
72330;BME280;60660;52.076;5.110;2023-02-18T12:37:37;101913.62;;;11.58;41.63
72330;BME280;60660;52.076;5.110;2023-02-18T12:40:00;101915.06;;;13.34;39.38
72330;BME280;60660;52.076;5.110;2023-02-18T12:42:36;101914.56;;;9.46;44.10
72330;BME280;60660;52.076;5.110;2023-02-18T12:44:38;101917.81;;;8.82;45.03
72330;BME280;60660;52.076;5.110;2023-02-18T12:47:21;101916.87;;;11.01;42.27
72330;BME280;60660;52.076;5.110;2023-02-18T12:50:10;101912.31;;;12.91;39.99